EST,Max TemperatureF,Mean TemperatureF,Min TemperatureF,Max Dew PointF,MeanDew PointF,Min DewpointF,Max Humidity, Mean Humidity, Min Humidity, Max Sea Level PressureIn, Mean Sea Level PressureIn, Min Sea Level PressureIn, Max VisibilityMiles, Mean VisibilityMiles, Min VisibilityMiles, Max Wind SpeedMPH, Mean Wind SpeedMPH, Max Gust SpeedMPH,PrecipitationIn, CloudCover, Events, WindDirDegrees
2013-1-1,35,26,17,28,16,7,75,65,54,30.03,29.93,29.81,10,8,2,21,12,26,0.02,7,Snow,293
2013-1-2,25,17,8,19,10,-4,81,67,53,30.26,30.07,29.95,10,7,1,25,11,31,0.02,8,Snow,278
2013-1-3,30,15,0,23,7,-9,84,73,62,30.25,30.07,29.97,10,5,1,23,7,30,0.02,8,Snow,113
2013-1-4,35,32,28,24,21,18,72,64,56,29.98,29.94,29.88,10,10,9,28,16,36,T,8,Snow,250
2013-1-5,34,31,28,25,22,19,75,66,56,30.28,30.16,29.99,10,10,9,25,10,33,T,7,Snow,240
2013-1-6,39,34,29,31,27,21,82,71,59,30.09,29.98,29.89,10,8,2,18,10,23,0.03,8,Rain-Snow,217
2013-1-7,36,26,16,30,20,13,85,74,63,30.41,30.28,30.02,10,9,5,16,7,21,0.01,6,Snow,312
2013-1-8,40,26,12,25,17,7,88,68,48,30.35,30.29,30.20,10,9,7,10,2,13,0.00,5,,98
2013-1-9,48,32,15,32,23,11,88,71,53,30.31,30.15,29.95,10,9,6,31,11,40,T,5,Rain,195
2013-1-10,41,34,27,27,24,22,78,66,54,30.57,30.50,30.31,10,10,10,28,8,39,0.00,5,,295
2013-1-11,43,35,27,36,28,21,81,68,55,30.47,30.16,30.00,10,9,2,18,8,25,0.19,8,Rain,104
2013-1-12,50,43,36,42,37,33,92,82,71,30.06,30.03,30.01,10,8,3,10,5,12,0.00,7,,87
2013-1-13,60,49,37,50,44,36,92,80,67,30.04,29.91,29.81,10,8,2,21,8,25,T,7,Rain,125
2013-1-14,55,44,32,48,31,18,83,67,51,30.37,30.14,29.74,10,10,10,29,12,38,T,8,Rain,287
2013-1-15,35,32,29,24,21,19,72,66,59,30.39,30.32,30.21,10,10,6,13,5,14,T,8,Snow,269
2013-1-16,36,32,28,28,25,22,85,75,64,30.18,29.94,29.79,10,8,1,16,5,22,0.02,7,Snow,83
2013-1-17,37,29,20,27,17,7,75,61,46,30.18,30.06,29.86,10,8,2,24,10,32,T,8,Rain-Snow,298
2013-1-18,30,22,14,14,9,0,80,63,46,30.42,30.31,30.13,10,7,0,17,6,22,0.06,7,Snow,181
2013-1-19,50,40,30,26,19,12,55,43,31,30.08,29.91,29.63,10,10,10,28,13,35,0.00,7,,195
2013-1-20,48,35,21,34,18,7,55,43,31,30.05,29.75,29.44,10,10,9,40,21,58,T,6,Rain-Snow,256
2013-1-21,23,20,17,16,12,7,77,67,56,30.04,29.92,29.82,10,5,0,26,7,36,0.07,7,Snow,275
2013-1-22,17,13,8,12,1,-4,80,64,48,30.17,30.01,29.84,10,6,0,32,19,39,0.05,7,Snow,270
2013-1-23,8,2,-4,2,-5,-10,87,71,55,30.26,30.19,30.14,10,5,1,13,4,15,0.03,7,Snow,11
2013-1-24,13,3,-7,7,-2,-13,78,67,55,30.47,30.35,30.16,10,7,2,23,9,28,T,6,Snow,271
2013-1-25,16,10,4,7,2,-3,80,69,58,30.47,30.28,30.10,10,8,2,9,3,12,0.02,8,Snow,14
2013-1-26,19,9,-2,12,2,-7,80,67,54,30.38,30.25,30.10,10,9,2,12,3,14,0.01,5,Snow,265
2013-1-27,24,16,7,13,8,3,80,65,50,30.57,30.48,30.36,10,9,2,12,4,14,T,6,Snow,317
2013-1-28,32,26,19,30,22,8,92,77,62,30.41,30.05,29.90,10,4,0,13,6,16,0.29,8,Fog-Rain-Snow,73
2013-1-29,47,40,32,44,33,30,96,93,89,30.09,29.98,29.84,6,3,2,18,4,20,0.30,8,Rain,72
2013-1-30,63,52,40,52,48,44,93,80,67,29.80,29.45,29.10,10,10,7,31,15,41,0.26,8,Rain,156
2013-1-31,57,41,24,51,24,10,86,66,46,29.66,29.32,28.96,10,9,4,38,23,52,0.31,8,Rain-Snow,250